Kezdőlap
METAR-TAF:

METAR-TAF

Repülőterek :

Kinloss, Skócia

földrajzi szélesség: 57-39N, földrajzi hosszúság: 003-34W, magasság: 7 m

Jelenlegi meteorológiai megfigyelések

A jelentés 30 perccel ezelõtt készült, 08:50 UTC
Keleti szél 5 kt
Hőmérséklet 14°C
Páratartalom 88%
Légköri nyomás 992 hPa
Látótávolság 10 km, vagy több

METAR: EGQK 140850Z AUTO 09005KT 9999 // SCT085/// SCT099/// 14/12 Q0992

Idő: 10:20 (09:20 UTC)


TAF: hiányzik

Meteorológiai megfigyelések és előrejelzések több, mint 4000 repülőtéren (METAR és TAF jelentéseket).

A térképen piros és sárga pontok jelzik az elérhető meteorológiai állomásokat.

Mozgassa az egeret a pont fölött, hogy megjelenjen az állomás neve.

Azután kattintson az időjárási megfigyelések és előrejelzések megtekintéséhez.

A térkép megváltoztatása: kattintson a fekete keresztel jelölt zöld gombra ráközelítéshez, a vonallal jelölt zöld gombra távolításhoz, vagy a zöld nyilakra a szomszédos térképek eléréséhez.


METAR-TAF: